Airfield :
LOGIN :

Register | Disclaimer

   EN    FR    IT 

 










Legend :    VFR   Marginal VFR   IFR   Intensive IFR   Very Intensive IFR
Visi :
Ceiling :
>= 8 km
>= 3000ft
5 to 8 km
1000 to 3000 ft
1500m to 5 km
500 to 1000 ft
800 to 1500m
200 to 500 ft
< 800m
< 200 ft
Symbols :   Thunderstorms  Fog  Heavy snow  Heavy precipitations  Wind > 20 kt
SIGMETs :     Misc.  Thunderstorms  Icing  Turbulence  Mountain Waves  Volcanic Ashes






- Airport Elevation : 529 ft
- IATA code : CHR


LFLX - Chateauroux

CURRENT METAR :
  • 170430Z AUTO 05004KT 9999 OVC033 05/04 Q1008 TEMPO 0800 FG BKN002

EXPIRED METARs :
  • 170400Z AUTO VRB02KT 9999 OVC032 05/04 Q1008 TEMPO 0800 FG BKN002
  • 170330Z AUTO VRB01KT 9999 OVC032 05/04 Q1008 TEMPO 0800 FG BKN002
  • 170300Z AUTO VRB01KT 9999 OVC030 05/04 Q1008 TEMPO 0800 FG BKN002
  • 170230Z AUTO 01002KT 9999 OVC030 05/04 Q1008 TEMPO 0800 FG BKN002
  • 170200Z AUTO 04003KT 9999 OVC030 05/04 Q1008 TEMPO 3000 BR BKN008
  • 170130Z AUTO 33003KT 9999 OVC031 05/05 Q1008 TEMPO 3000 BR BKN008

TAF TAF LFLX
Valid from the 17 at 00:00 until the 18 at 06:00 UTC


162300Z 1700/1806 VRB04KT 9999 BKN020
TEMPO 1701/1711 3000 BR BKN008
PROB30
TEMPO 1704/1708 0800 FG BKN002
PROB30
TEMPO 1714/1718 -SHRA
TEMPO 1722/1806 4000 BR BKN003
PROB30
TEMPO 1800/1806 0800 FG VV///



MET'MAP, your aeronautical weather chart ! - Copyright ORBIFLY December 2007 - Disclaimer

ORBIFLY MET'MAP TEAM :

Programming & Development : Alexandra Zaïnal
Concept & Development : Baudouin d'Aumeries
Co-Development & Prog : Marc-Olivier Méhu
Technical & hardware support : Manuel Goepfert

Contact : metmap@orbifly.com




SOURCES & CREDITS :

   NOAA